createdAt,value
2023-04-26T00:00:45.448Z,40.94
2023-04-26T00:01:45.444Z,45.88
2023-04-26T00:02:45.523Z,44.78
2023-04-26T00:03:46.664Z,57.61
2023-04-26T00:04:46.644Z,57.74
2023-04-26T00:05:45.514Z,39.69
2023-04-26T00:06:45.427Z,56.89
2023-04-26T00:07:45.401Z,46.58
2023-04-26T00:08:45.385Z,44.52
2023-04-26T00:09:45.388Z,51.29
2023-04-26T00:10:45.371Z,53.04
2023-04-26T00:11:45.385Z,50.40
2023-04-26T00:12:45.362Z,54.90
2023-04-26T00:13:45.342Z,56.33
2023-04-26T00:14:45.354Z,49.32
2023-04-26T00:15:45.329Z,52.52
2023-04-26T00:16:45.411Z,38.77
2023-04-26T00:17:45.379Z,38.34
2023-04-26T00:18:45.293Z,43.11
2023-04-26T00:19:45.339Z,40.44
2023-04-26T00:20:45.900Z,39.07
2023-04-26T00:23:37.684Z,51.09
2023-04-26T00:24:37.677Z,38.35
2023-04-26T00:25:37.662Z,38.30
2023-04-26T00:26:37.652Z,44.87
2023-04-26T00:27:37.663Z,54.59
2023-04-26T00:28:37.644Z,51.73
2023-04-26T00:29:37.636Z,38.81
2023-04-26T00:30:37.651Z,45.00
2023-04-26T00:31:37.669Z,40.50
2023-04-26T00:32:37.693Z,41.01
2023-04-26T00:33:37.595Z,59.20
2023-04-26T00:34:37.595Z,51.60
2023-04-26T00:35:37.583Z,49.80
2023-04-26T00:36:37.585Z,41.96
2023-04-26T00:37:37.588Z,44.49
2023-04-26T00:38:37.561Z,40.05
2023-04-26T00:39:37.591Z,45.67
2023-04-26T00:40:38.638Z,48.86
2023-04-26T00:41:38.639Z,56.94
2023-04-26T00:42:38.629Z,51.20
2023-04-26T00:43:38.674Z,43.30
2023-04-26T00:44:38.618Z,41.86
2023-04-26T00:45:38.641Z,44.74
2023-04-26T00:46:38.591Z,51.91
2023-04-26T00:47:39.547Z,58.22
2023-04-26T00:48:38.576Z,61.36
2023-04-26T00:49:38.577Z,47.25
2023-04-26T00:50:38.576Z,47.31
2023-04-26T00:51:38.555Z,57.83
2023-04-26T00:52:38.587Z,45.00
2023-04-26T00:53:38.558Z,49.03
2023-04-26T00:54:38.588Z,43.92
2023-04-26T00:55:38.579Z,49.91
2023-04-26T00:56:38.551Z,39.94
2023-04-26T00:57:38.504Z,41.32
2023-04-26T00:58:38.521Z,43.28
2023-04-26T00:59:38.516Z,44.26
2023-04-26T01:00:38.516Z,61.29
2023-04-26T01:01:38.607Z,54.34
2023-04-26T01:02:38.635Z,58.24
2023-04-26T01:03:38.651Z,58.67
2023-04-26T01:04:38.662Z,52.64
2023-04-26T01:05:38.454Z,46.61
2023-04-26T01:06:38.451Z,47.80
2023-04-26T01:07:38.441Z,56.75
2023-04-26T01:08:38.429Z,50.96
2023-04-26T01:09:38.423Z,55.01
2023-04-26T01:10:38.424Z,41.88
2023-04-26T01:11:38.395Z,56.24
2023-04-26T01:12:38.668Z,57.57
2023-04-26T01:13:38.431Z,51.79
2023-04-26T01:14:38.385Z,49.41
2023-04-26T01:15:38.382Z,48.86
2023-04-26T01:16:38.419Z,45.87
2023-04-26T01:17:38.419Z,46.12
2023-04-26T01:18:38.371Z,51.26
2023-04-26T01:19:38.386Z,52.56
2023-04-26T01:20:38.353Z,53.77
2023-04-26T01:21:38.327Z,52.56
2023-04-26T01:22:38.334Z,55.08
2023-04-26T01:23:38.305Z,56.46
2023-04-26T01:24:38.316Z,43.91
2023-04-26T01:25:38.305Z,54.28
2023-04-26T01:26:39.040Z,62.83
2023-04-26T01:27:40.133Z,43.04
2023-04-26T01:28:38.277Z,54.38
2023-04-26T01:29:38.296Z,42.59
2023-04-26T01:30:38.330Z,39.82
2023-04-26T01:31:39.060Z,41.13
2023-04-26T01:32:38.301Z,60.04
2023-04-26T01:33:38.235Z,51.51
2023-04-26T01:34:38.248Z,46.95
2023-04-26T01:35:38.242Z,57.52
2023-04-26T01:36:38.230Z,54.64
2023-04-26T01:37:38.220Z,51.41
2023-04-26T01:38:38.195Z,55.50
2023-04-26T01:39:38.189Z,50.89
2023-04-26T01:40:38.196Z,56.56
2023-04-26T01:41:38.183Z,53.13
2023-04-26T01:42:38.148Z,50.16
2023-04-26T01:43:38.160Z,41.07
2023-04-26T01:44:38.161Z,50.85
2023-04-26T01:45:38.130Z,55.73
2023-04-26T01:46:38.179Z,45.40
2023-04-26T01:47:39.189Z,50.78
2023-04-26T01:48:38.112Z,53.04
2023-04-26T01:49:38.119Z,58.40
2023-04-26T01:50:38.640Z,45.63
2023-04-26T01:51:38.111Z,51.03
2023-04-26T01:52:38.091Z,53.53
2023-04-26T01:53:38.083Z,56.90
2023-04-26T01:54:38.076Z,49.02
2023-04-26T01:55:38.054Z,48.24
2023-04-26T01:56:38.762Z,40.89
2023-04-26T01:57:38.077Z,57.89
2023-04-26T01:58:38.044Z,53.98
2023-04-26T01:59:38.025Z,44.80
2023-04-26T02:00:38.007Z,45.72
2023-04-26T02:01:38.048Z,47.62
2023-04-26T02:02:38.124Z,51.78
2023-04-26T02:03:38.015Z,53.51
2023-04-26T02:04:38.026Z,50.00
2023-04-26T02:05:37.985Z,58.67
2023-04-26T02:06:37.989Z,53.60
2023-04-26T02:07:37.945Z,44.17
2023-04-26T02:08:37.967Z,45.88
2023-04-26T02:09:37.947Z,47.78
2023-04-26T02:10:37.954Z,51.61
2023-04-26T02:11:37.949Z,40.65
2023-04-26T02:12:37.930Z,56.69
2023-04-26T02:13:37.914Z,54.42
2023-04-26T02:14:37.912Z,53.69
2023-04-26T02:15:38.010Z,47.76
2023-04-26T02:16:37.906Z,50.81
2023-04-26T02:17:37.949Z,50.31
2023-04-26T02:18:37.872Z,45.52
2023-04-26T02:19:37.903Z,49.01
2023-04-26T02:20:37.863Z,57.58
2023-04-26T02:21:38.633Z,57.52
2023-04-26T02:22:37.853Z,53.38
2023-04-26T02:23:37.828Z,43.26
2023-04-26T02:24:37.832Z,61.05
2023-04-26T02:25:37.819Z,53.33
2023-04-26T02:26:37.842Z,42.14
2023-04-26T02:27:37.809Z,50.90
2023-04-26T02:28:37.790Z,58.83
2023-04-26T02:29:44.229Z,53.32
2023-04-26T02:30:39.790Z,45.67
2023-04-26T02:31:37.814Z,53.19
2023-04-26T02:32:37.783Z,56.47
2023-04-26T02:33:37.761Z,59.39
2023-04-26T02:34:37.755Z,48.47
2023-04-26T02:35:37.754Z,57.48
2023-04-26T02:36:37.734Z,59.64
2023-04-26T02:37:37.732Z,61.96
2023-04-26T02:38:37.759Z,61.29
2023-04-26T02:39:37.698Z,61.49
2023-04-26T02:40:37.708Z,56.35
2023-04-26T02:41:37.688Z,58.36
2023-04-26T02:42:37.679Z,61.32
2023-04-26T02:43:37.678Z,55.67
2023-04-26T02:44:37.672Z,56.84
2023-04-26T02:45:37.667Z,54.73
2023-04-26T02:46:38.590Z,52.95
2023-04-26T02:47:37.675Z,55.04
2023-04-26T02:48:37.624Z,54.79
2023-04-26T02:49:37.668Z,58.48
2023-04-26T02:50:37.611Z,56.63
2023-04-26T02:51:37.626Z,56.40
2023-04-26T02:52:37.620Z,54.01
2023-04-26T02:53:37.615Z,55.34
2023-04-26T02:54:41.326Z,57.75
2023-04-26T02:55:37.585Z,55.54
2023-04-26T02:56:37.609Z,58.36
2023-04-26T02:57:38.148Z,60.33
2023-04-26T02:58:37.582Z,58.09
2023-04-26T02:59:37.597Z,58.21
2023-04-26T03:00:37.624Z,57.97
2023-04-26T03:01:37.607Z,55.82
2023-04-26T03:02:37.649Z,54.96
2023-04-26T03:03:37.837Z,59.95
2023-04-26T03:04:37.498Z,58.70
2023-04-26T03:05:37.509Z,56.89
2023-04-26T03:06:37.546Z,61.44
2023-04-26T03:07:37.494Z,65.03
2023-04-26T03:08:37.466Z,56.41
2023-04-26T03:09:38.468Z,59.79
2023-04-26T03:10:37.481Z,59.01
2023-04-26T03:11:37.463Z,63.20
2023-04-26T03:12:37.456Z,62.22
2023-04-26T03:13:39.094Z,51.07
2023-04-26T03:14:37.438Z,59.31
2023-04-26T03:15:37.418Z,60.70
2023-04-26T03:16:37.423Z,53.90
2023-04-26T03:17:37.430Z,61.49
2023-04-26T03:18:37.399Z,61.05
2023-04-26T03:19:37.402Z,59.40
2023-04-26T03:20:37.400Z,57.91
2023-04-26T03:21:37.387Z,62.82
2023-04-26T03:22:37.392Z,63.09
2023-04-26T03:23:37.363Z,58.10
2023-04-26T03:24:37.334Z,58.84
2023-04-26T03:25:37.329Z,61.26
2023-04-26T03:26:37.338Z,59.46
2023-04-26T03:27:37.359Z,59.10
2023-04-26T03:28:37.324Z,58.67
2023-04-26T03:29:37.295Z,58.33
2023-04-26T03:30:37.347Z,60.14
2023-04-26T03:31:37.306Z,56.41
2023-04-26T03:32:37.313Z,60.13
2023-04-26T03:33:37.284Z,61.60
2023-04-26T03:34:37.285Z,61.25
2023-04-26T03:35:37.294Z,61.20
2023-04-26T03:36:38.081Z,63.95
2023-04-26T03:37:37.249Z,63.09
2023-04-26T03:38:37.235Z,57.99
2023-04-26T03:39:37.246Z,65.67
2023-04-26T03:40:37.214Z,60.86
2023-04-26T03:41:37.232Z,60.34
2023-04-26T03:42:37.202Z,61.18
2023-04-26T03:43:37.180Z,62.51
2023-04-26T03:44:38.203Z,59.62
2023-04-26T03:45:37.213Z,61.83
2023-04-26T03:46:37.158Z,57.63
2023-04-26T03:47:37.180Z,63.04
2023-04-26T03:48:37.198Z,63.38
2023-04-26T03:49:37.180Z,64.08
2023-04-26T03:50:37.133Z,65.92
2023-04-26T03:51:37.143Z,68.21
2023-04-26T03:52:37.113Z,67.59
2023-04-26T03:53:37.096Z,63.77
2023-04-26T03:54:37.164Z,62.80
2023-04-26T03:55:37.082Z,62.62
2023-04-26T03:56:37.142Z,62.14
2023-04-26T03:57:37.069Z,64.92
2023-04-26T03:58:37.080Z,65.56
2023-04-26T03:59:37.059Z,66.66
2023-04-26T04:00:37.061Z,64.08
2023-04-26T04:01:37.049Z,58.18
2023-04-26T04:02:37.173Z,64.27
2023-04-26T04:03:40.044Z,66.86
2023-04-26T04:04:38.109Z,67.30
2023-04-26T04:05:37.117Z,63.96
2023-04-26T04:06:37.018Z,63.76
2023-04-26T04:07:36.993Z,65.52
2023-04-26T04:08:37.581Z,62.78
2023-04-26T04:09:37.004Z,60.30
2023-04-26T04:10:39.677Z,59.24
2023-04-26T04:11:36.980Z,62.89
2023-04-26T04:12:36.956Z,64.10
2023-04-26T04:13:36.975Z,66.52
2023-04-26T04:14:36.946Z,63.75
2023-04-26T04:15:37.037Z,65.74
2023-04-26T04:16:37.050Z,61.67
2023-04-26T04:17:38.542Z,62.22
2023-04-26T04:18:37.917Z,63.11
2023-04-26T04:19:36.894Z,65.91
2023-04-26T04:20:37.572Z,64.06
2023-04-26T04:21:36.896Z,64.50
2023-04-26T04:22:36.887Z,64.14
2023-04-26T04:23:36.894Z,63.14
2023-04-26T04:24:36.857Z,61.79
2023-04-26T04:25:36.869Z,66.35
2023-04-26T04:26:36.961Z,66.75
2023-04-26T04:27:37.569Z,64.31
2023-04-26T04:28:36.832Z,62.19
2023-04-26T04:29:36.836Z,61.50
2023-04-26T04:30:36.835Z,65.31
2023-04-26T04:31:37.704Z,63.52
2023-04-26T04:32:37.821Z,64.39
2023-04-26T04:33:36.784Z,63.29
2023-04-26T04:34:36.790Z,63.85
2023-04-26T04:35:36.767Z,68.34
2023-04-26T04:36:36.772Z,64.85
2023-04-26T04:37:37.582Z,66.68
2023-04-26T04:38:38.700Z,66.36
2023-04-26T04:39:36.753Z,64.82
2023-04-26T04:40:36.731Z,61.58
2023-04-26T04:41:36.732Z,65.03
2023-04-26T04:42:36.725Z,65.56
2023-04-26T04:43:36.728Z,63.74
2023-04-26T04:44:36.730Z,65.93
2023-04-26T04:45:36.754Z,67.32
2023-04-26T04:46:36.710Z,62.52
2023-04-26T04:47:36.682Z,64.64
2023-04-26T04:48:36.706Z,66.52
2023-04-26T04:49:36.657Z,63.55
2023-04-26T04:50:36.653Z,67.10
2023-04-26T04:51:36.651Z,65.65
2023-04-26T04:52:38.643Z,65.99
2023-04-26T04:53:36.661Z,68.66
2023-04-26T04:54:36.650Z,64.99
2023-04-26T04:55:36.627Z,65.98
2023-04-26T04:56:36.614Z,66.02
2023-04-26T04:57:36.611Z,67.07
2023-04-26T04:58:36.720Z,64.57
2023-04-26T04:59:36.581Z,64.36
2023-04-26T05:00:37.187Z,65.32
2023-04-26T05:01:36.592Z,64.26
2023-04-26T05:02:37.344Z,67.28
2023-04-26T05:03:36.692Z,66.91
2023-04-26T05:04:36.824Z,66.79
2023-04-26T05:05:36.537Z,68.66
2023-04-26T05:06:36.521Z,66.74
2023-04-26T05:07:36.540Z,68.44
2023-04-26T05:08:36.543Z,63.92
2023-04-26T05:09:36.503Z,65.84
2023-04-26T05:10:36.491Z,69.04
2023-04-26T05:11:36.494Z,67.46
2023-04-26T05:12:36.487Z,66.76
2023-04-26T05:13:36.483Z,67.69
2023-04-26T05:14:36.485Z,67.31
2023-04-26T05:15:36.471Z,65.98
2023-04-26T05:16:36.491Z,65.70
2023-04-26T05:17:36.532Z,65.56
2023-04-26T05:18:36.488Z,67.33
2023-04-26T05:19:36.443Z,67.41
2023-04-26T05:20:36.430Z,67.54
2023-04-26T05:21:36.516Z,66.90
2023-04-26T05:22:36.450Z,67.01
2023-04-26T05:23:36.394Z,64.40
2023-04-26T05:24:36.474Z,66.93
2023-04-26T05:25:36.451Z,65.05
2023-04-26T05:26:36.370Z,67.79
2023-04-26T05:27:36.379Z,67.54
2023-04-26T05:28:36.389Z,66.28
2023-04-26T05:29:36.373Z,67.70
2023-04-26T05:30:36.340Z,67.31
2023-04-26T05:31:36.393Z,64.88
2023-04-26T05:32:36.335Z,68.79
2023-04-26T05:33:36.325Z,68.50
2023-04-26T05:34:36.309Z,68.10
2023-04-26T05:35:36.299Z,66.84
2023-04-26T05:36:36.302Z,67.02
2023-04-26T05:37:36.337Z,66.11
2023-04-26T05:38:36.291Z,67.28
2023-04-26T05:39:36.286Z,67.18
2023-04-26T05:40:36.285Z,67.40
2023-04-26T05:41:36.315Z,65.27
2023-04-26T05:42:37.268Z,66.16
2023-04-26T05:43:36.264Z,66.87
2023-04-26T05:44:36.249Z,67.26
2023-04-26T05:45:36.273Z,66.44
2023-04-26T05:46:36.239Z,64.51
2023-04-26T05:47:37.223Z,65.18
2023-04-26T05:48:36.212Z,66.96
2023-04-26T05:49:36.201Z,66.43
2023-04-26T05:50:37.277Z,66.00
2023-04-26T05:51:36.169Z,67.12
2023-04-26T05:52:36.168Z,63.81
2023-04-26T05:53:36.174Z,69.06
2023-04-26T05:54:36.189Z,67.81
2023-04-26T05:55:36.146Z,67.40
2023-04-26T05:56:36.129Z,66.17
2023-04-26T05:57:36.219Z,66.29
2023-04-26T05:58:36.152Z,62.70
2023-04-26T05:59:36.148Z,66.62
2023-04-26T06:00:36.118Z,67.95
2023-04-26T06:01:36.094Z,66.67
2023-04-26T06:02:36.270Z,67.26
2023-04-26T06:03:36.433Z,65.73
2023-04-26T06:04:36.187Z,66.34
2023-04-26T06:05:36.079Z,64.76
2023-04-26T06:06:36.054Z,63.67
2023-04-26T06:07:36.050Z,65.93
2023-04-26T06:08:36.037Z,66.12
2023-04-26T06:09:36.013Z,65.43
2023-04-26T06:10:36.041Z,66.37
2023-04-26T06:11:36.007Z,65.88
2023-04-26T06:12:36.018Z,65.84
2023-04-26T06:13:35.997Z,63.95
2023-04-26T06:14:35.976Z,63.25
2023-04-26T06:15:35.975Z,65.02
2023-04-26T06:16:35.977Z,66.65
2023-04-26T06:17:36.029Z,63.67
2023-04-26T06:18:38.696Z,66.53
2023-04-26T06:19:35.966Z,66.46
2023-04-26T06:20:35.972Z,68.26
2023-04-26T06:21:35.946Z,62.37
2023-04-26T06:22:35.917Z,63.51
2023-04-26T06:23:35.905Z,64.19
2023-04-26T06:24:35.933Z,64.98
2023-04-26T06:25:35.927Z,63.99
2023-04-26T06:26:35.900Z,67.42
2023-04-26T06:27:35.916Z,73.06
2023-04-26T06:30:43.403Z,64.88
2023-04-26T06:31:44.482Z,65.93
2023-04-26T06:32:44.545Z,66.24
2023-04-26T06:33:44.980Z,65.83
2023-04-26T06:34:44.462Z,70.01
2023-04-26T06:35:44.477Z,65.08
2023-04-26T06:36:45.935Z,66.57
2023-04-26T06:37:44.943Z,65.52
2023-04-26T06:38:44.429Z,63.96
2023-04-26T06:39:44.408Z,64.87
2023-04-26T06:40:44.419Z,64.32
2023-04-26T06:41:45.361Z,65.32
2023-04-26T06:42:44.432Z,65.72
2023-04-26T06:43:44.380Z,66.21
2023-04-26T06:44:44.416Z,61.79
2023-04-26T06:45:44.386Z,63.96
2023-04-26T06:46:44.423Z,62.59
2023-04-26T06:47:44.899Z,63.82
2023-04-26T06:48:44.364Z,67.29
2023-04-26T06:49:44.979Z,65.46
2023-04-26T06:50:44.324Z,66.04
2023-04-26T06:51:44.374Z,65.78
2023-04-26T06:52:44.319Z,62.45
2023-04-26T06:53:44.342Z,62.93
2023-04-26T06:54:56.045Z,64.75
2023-04-26T06:55:46.301Z,65.91
2023-04-26T06:56:44.296Z,65.55
2023-04-26T06:57:44.318Z,66.03
2023-04-26T06:58:56.901Z,65.33
2023-04-26T06:59:44.272Z,65.44
2023-04-26T07:00:44.248Z,64.24
2023-04-26T07:01:44.304Z,64.18
2023-04-26T07:02:44.359Z,66.21
2023-04-26T07:03:44.330Z,64.15
2023-04-26T07:04:44.520Z,66.05
2023-04-26T07:05:44.242Z,62.92
2023-04-26T07:06:44.261Z,64.04
2023-04-26T07:07:44.222Z,63.15
2023-04-26T07:08:44.219Z,62.15
2023-04-26T07:09:44.532Z,63.95
2023-04-26T07:10:44.171Z,63.98
2023-04-26T07:11:44.201Z,61.46
2023-04-26T07:12:44.201Z,64.85
2023-04-26T07:13:44.158Z,63.68
2023-04-26T07:14:44.877Z,62.75
2023-04-26T07:15:44.167Z,64.37
2023-04-26T07:16:44.510Z,62.59
2023-04-26T07:17:44.912Z,63.86
2023-04-26T07:20:31.240Z,66.22
2023-04-26T07:21:31.248Z,65.63
2023-04-26T07:22:31.209Z,62.48
2023-04-26T07:23:31.216Z,62.97
2023-04-26T07:24:31.203Z,64.61
2023-04-26T07:25:31.207Z,65.97
2023-04-26T07:26:31.183Z,65.28
2023-04-26T07:27:32.270Z,62.87
2023-04-26T07:28:32.275Z,63.54
2023-04-26T07:29:32.265Z,61.82
2023-04-26T07:30:32.264Z,66.26
2023-04-26T07:31:32.250Z,63.30
2023-04-26T07:32:32.272Z,63.40
2023-04-26T07:33:32.363Z,63.45
2023-04-26T07:34:32.887Z,63.83
2023-04-26T07:35:32.216Z,64.06
2023-04-26T07:36:32.202Z,67.36
2023-04-26T07:37:32.358Z,63.79
2023-04-26T07:38:32.193Z,66.15
2023-04-26T07:39:32.244Z,63.54
2023-04-26T07:40:32.183Z,64.02
2023-04-26T07:41:32.187Z,64.28
2023-04-26T07:42:32.158Z,63.62
2023-04-26T07:43:32.141Z,64.08
2023-04-26T07:44:32.139Z,63.97
2023-04-26T07:45:32.147Z,63.54
2023-04-26T07:46:32.121Z,63.03
2023-04-26T07:47:32.191Z,64.58
2023-04-26T07:48:32.100Z,62.57
2023-04-26T07:49:32.098Z,64.82
2023-04-26T07:50:32.081Z,65.11
2023-04-26T07:51:32.080Z,64.83
2023-04-26T07:52:32.078Z,63.18
2023-04-26T07:53:32.112Z,66.17
2023-04-26T07:54:32.059Z,65.58
2023-04-26T07:55:32.061Z,65.39
2023-04-26T07:56:33.972Z,67.30
2023-04-26T07:57:32.050Z,61.97
2023-04-26T07:58:33.888Z,66.74
2023-04-26T07:59:32.056Z,65.09
2023-04-26T08:00:32.019Z,64.93
2023-04-26T08:01:32.006Z,63.15
2023-04-26T08:02:44.076Z,64.85
2023-04-26T08:03:35.285Z,65.37
2023-04-26T08:04:32.085Z,65.27
2023-04-26T08:05:32.277Z,67.36
2023-04-26T08:06:31.991Z,66.57
2023-04-26T08:07:31.988Z,60.68
2023-04-26T08:08:31.971Z,63.62
2023-04-26T08:09:31.964Z,64.44
2023-04-26T08:10:32.475Z,63.22
2023-04-26T08:11:33.028Z,65.90
2023-04-26T08:12:31.944Z,63.10
2023-04-26T08:13:31.928Z,62.10
2023-04-26T08:14:31.901Z,61.77
2023-04-26T08:15:31.897Z,63.96
2023-04-26T08:16:31.986Z,65.08
2023-04-26T08:17:32.929Z,66.77
2023-04-26T08:18:31.863Z,64.33
2023-04-26T08:19:31.977Z,63.48
2023-04-26T08:20:31.863Z,65.67
2023-04-26T08:21:32.479Z,66.84
2023-04-26T08:22:31.836Z,65.57
2023-04-26T08:23:31.857Z,66.69
2023-04-26T08:24:31.835Z,64.71
2023-04-26T08:25:32.178Z,65.93
2023-04-26T08:26:31.823Z,64.71
2023-04-26T08:27:31.813Z,63.08
2023-04-26T08:28:31.829Z,63.94
2023-04-26T08:29:31.813Z,64.43
2023-04-26T08:30:33.559Z,64.24
2023-04-26T08:31:31.926Z,62.90
2023-04-26T08:32:31.820Z,63.06
2023-04-26T08:33:31.802Z,65.23
2023-04-26T08:34:31.768Z,65.71
2023-04-26T08:35:31.749Z,64.08
2023-04-26T08:36:31.743Z,65.82
2023-04-26T08:37:31.782Z,67.38
2023-04-26T08:38:31.738Z,70.36
2023-04-26T08:39:31.768Z,64.24
2023-04-26T08:40:32.517Z,65.42
2023-04-26T08:41:31.713Z,65.62
2023-04-26T08:42:31.708Z,64.95
2023-04-26T08:43:31.698Z,65.15
2023-04-26T08:44:32.396Z,63.74
2023-04-26T08:45:32.481Z,64.05
2023-04-26T08:46:31.739Z,63.37
2023-04-26T08:47:31.808Z,64.57
2023-04-26T08:48:31.630Z,63.75
2023-04-26T08:49:31.617Z,63.90
2023-04-26T08:50:31.628Z,65.72
2023-04-26T08:51:31.639Z,65.51
2023-04-26T08:52:31.650Z,62.24
2023-04-26T08:53:31.619Z,63.91
2023-04-26T08:54:31.624Z,64.63
2023-04-26T08:55:31.609Z,64.33
2023-04-26T08:56:32.398Z,63.75
2023-04-26T08:57:31.628Z,64.86
2023-04-26T08:58:31.661Z,66.29
2023-04-26T08:59:31.572Z,62.37
2023-04-26T09:00:31.592Z,64.79
2023-04-26T09:01:31.556Z,63.25
2023-04-26T09:02:31.677Z,62.99
2023-04-26T09:03:31.729Z,63.67
2023-04-26T09:04:31.769Z,60.84
2023-04-26T09:05:32.524Z,62.53
2023-04-26T09:06:31.566Z,63.53
2023-04-26T09:07:32.530Z,68.20
2023-04-26T09:08:31.520Z,64.86
2023-04-26T09:09:31.476Z,63.53
2023-04-26T09:10:31.472Z,64.76
2023-04-26T09:11:31.467Z,65.00
2023-04-26T09:12:31.448Z,63.95
2023-04-26T09:13:31.493Z,62.00
2023-04-26T09:14:31.446Z,62.93
2023-04-26T09:15:31.466Z,63.21
2023-04-26T09:16:31.449Z,61.71
2023-04-26T09:17:31.455Z,62.78
2023-04-26T09:18:31.401Z,66.49
2023-04-26T09:19:31.403Z,63.36
2023-04-26T09:20:31.397Z,64.53
2023-04-26T09:21:31.387Z,66.21
2023-04-26T09:22:31.385Z,66.50
2023-04-26T09:23:31.358Z,65.09
2023-04-26T09:24:31.372Z,65.93
2023-04-26T09:25:31.374Z,64.37
2023-04-26T09:26:31.342Z,64.49
2023-04-26T09:27:31.349Z,63.17
2023-04-26T09:28:31.358Z,63.76
2023-04-26T09:29:31.307Z,67.08
2023-04-26T09:30:31.316Z,65.06
2023-04-26T09:31:31.983Z,64.25
2023-04-26T09:32:31.309Z,63.11
2023-04-26T09:33:31.289Z,63.59
2023-04-26T09:34:31.283Z,62.98
2023-04-26T09:35:31.278Z,63.04
2023-04-26T09:36:31.303Z,63.56
2023-04-26T09:37:31.279Z,65.49
2023-04-26T09:38:31.256Z,64.58
2023-04-26T09:39:31.269Z,63.92
2023-04-26T09:40:31.243Z,63.80
2023-04-26T09:41:31.234Z,63.34
2023-04-26T09:42:31.547Z,63.42
2023-04-26T09:43:31.221Z,62.29
2023-04-26T09:44:31.204Z,66.41
2023-04-26T09:45:31.992Z,62.60
2023-04-26T09:46:31.214Z,60.63
2023-04-26T09:47:31.219Z,64.52
2023-04-26T09:48:31.234Z,64.90
2023-04-26T09:49:31.161Z,64.33
2023-04-26T09:50:31.190Z,64.78
2023-04-26T09:51:31.197Z,64.09
2023-04-26T09:52:31.217Z,63.47
2023-04-26T09:53:31.230Z,64.67
2023-04-26T09:54:31.105Z,63.86
2023-04-26T09:55:34.787Z,65.04
2023-04-26T09:56:32.124Z,65.28
2023-04-26T09:57:31.127Z,64.64
2023-04-26T09:58:31.084Z,64.35
2023-04-26T09:59:31.091Z,62.87
2023-04-26T10:00:31.135Z,64.11
2023-04-26T10:01:31.266Z,63.30
2023-04-26T10:02:31.252Z,63.73
2023-04-26T10:03:31.180Z,65.86
2023-04-26T10:04:31.053Z,65.24
2023-04-26T10:05:32.415Z,68.77
2023-04-26T10:06:32.081Z,63.27
2023-04-26T10:07:31.024Z,63.11
2023-04-26T10:08:31.020Z,64.34
2023-04-26T10:09:31.019Z,64.69
2023-04-26T10:10:30.987Z,64.97
2023-04-26T10:11:31.021Z,63.15
2023-04-26T10:12:30.975Z,64.02
2023-04-26T10:13:30.973Z,65.50
2023-04-26T10:14:30.961Z,66.51
2023-04-26T10:15:30.963Z,66.89
2023-04-26T10:16:30.994Z,71.78
2023-04-26T10:17:30.980Z,67.96
2023-04-26T10:18:30.936Z,67.65
2023-04-26T10:19:30.945Z,69.72
2023-04-26T10:20:31.525Z,70.79
2023-04-26T10:21:30.924Z,71.23
2023-04-26T10:22:30.906Z,69.49
2023-04-26T10:23:30.921Z,70.64
2023-04-26T10:24:31.179Z,68.67
2023-04-26T10:25:30.874Z,67.04
2023-04-26T10:26:30.912Z,68.45
2023-04-26T10:27:30.883Z,66.14
2023-04-26T10:28:30.872Z,64.68
2023-04-26T10:29:30.843Z,63.49
2023-04-26T10:30:31.520Z,68.37
2023-04-26T10:31:30.888Z,62.61
2023-04-26T10:32:30.848Z,63.93
2023-04-26T10:33:30.849Z,63.33
2023-04-26T10:34:30.800Z,63.11
2023-04-26T10:35:30.846Z,64.66
2023-04-26T10:36:30.788Z,64.09
2023-04-26T10:37:30.792Z,64.09
2023-04-26T10:38:30.773Z,65.92
2023-04-26T10:39:30.785Z,63.72
2023-04-26T10:40:31.522Z,61.92
2023-04-26T10:41:30.780Z,63.90
2023-04-26T10:42:30.758Z,65.35
2023-04-26T10:43:30.760Z,64.26
2023-04-26T10:44:30.730Z,63.26
2023-04-26T10:45:30.741Z,63.74
2023-04-26T10:46:30.793Z,60.57
2023-04-26T10:47:30.801Z,65.56
2023-04-26T10:48:30.780Z,64.04
2023-04-26T10:49:30.744Z,62.68
2023-04-26T10:50:30.700Z,64.40
2023-04-26T10:51:30.676Z,65.69
2023-04-26T10:52:30.746Z,65.74
2023-04-26T10:53:30.705Z,64.15
2023-04-26T10:54:31.682Z,64.78
2023-04-26T10:55:30.668Z,64.34
2023-04-26T10:56:30.704Z,66.60
2023-04-26T10:57:30.633Z,65.10
2023-04-26T10:58:31.746Z,64.90
2023-04-26T10:59:43.384Z,65.89
2023-04-26T11:00:33.116Z,64.23
2023-04-26T11:01:31.665Z,65.55
2023-04-26T11:02:30.672Z,64.61
2023-04-26T11:03:30.697Z,67.70
2023-04-26T11:04:32.625Z,66.06
2023-04-26T11:05:30.601Z,64.93
2023-04-26T11:06:31.456Z,64.48
2023-04-26T11:07:30.555Z,66.99
2023-04-26T11:08:30.608Z,66.04
2023-04-26T11:09:30.553Z,66.41
2023-04-26T11:10:30.574Z,63.80
2023-04-26T11:11:30.538Z,66.36
2023-04-26T11:12:30.536Z,66.25
2023-04-26T11:13:30.527Z,66.07
2023-04-26T11:14:34.475Z,65.03
2023-04-26T11:15:30.514Z,64.88
2023-04-26T11:16:31.204Z,64.81
2023-04-26T11:17:30.596Z,65.66
2023-04-26T11:18:32.303Z,66.66
2023-04-26T11:20:03.066Z,66.80
2023-04-26T11:20:30.457Z,67.51
2023-04-26T11:21:30.991Z,66.34
2023-04-26T11:22:32.034Z,67.08
2023-04-26T11:23:30.426Z,67.68
2023-04-26T11:24:30.439Z,66.89
2023-04-26T11:25:30.422Z,66.85
2023-04-26T11:26:30.397Z,66.82
2023-04-26T11:27:31.046Z,64.53
2023-04-26T11:28:33.953Z,65.03
2023-04-26T11:29:30.396Z,62.90
2023-04-26T11:30:30.374Z,63.66
2023-04-26T11:31:30.430Z,64.32
2023-04-26T11:32:31.048Z,64.33
2023-04-26T11:33:30.372Z,63.36
2023-04-26T11:34:30.343Z,63.18
2023-04-26T11:35:30.350Z,62.50
2023-04-26T11:36:30.969Z,66.31
2023-04-26T11:37:30.326Z,63.79
2023-04-26T11:38:30.319Z,61.77
2023-04-26T11:39:30.310Z,63.21
2023-04-26T11:40:30.287Z,62.17
2023-04-26T11:41:30.276Z,62.92
2023-04-26T11:42:30.297Z,65.02
2023-04-26T11:43:30.394Z,63.55
2023-04-26T11:44:30.377Z,64.05
2023-04-26T11:45:30.243Z,64.86
2023-04-26T11:46:30.259Z,61.75
2023-04-26T11:47:30.245Z,64.06
2023-04-26T11:48:30.272Z,64.47
2023-04-26T11:49:30.217Z,61.92
2023-04-26T11:50:30.224Z,62.41
2023-04-26T11:51:30.692Z,63.87
2023-04-26T11:52:30.284Z,62.14
2023-04-26T11:53:30.316Z,63.60
2023-04-26T11:54:30.158Z,64.64
2023-04-26T11:55:30.197Z,63.02
2023-04-26T11:56:30.223Z,64.61
2023-04-26T11:57:31.051Z,64.13
2023-04-26T11:58:30.145Z,63.71
2023-04-26T11:59:30.147Z,63.10
2023-04-26T12:00:30.129Z,65.43
2023-04-26T12:01:30.127Z,66.04
2023-04-26T12:02:30.271Z,65.91
2023-04-26T12:03:30.233Z,63.97
2023-04-26T12:04:31.251Z,62.80
2023-04-26T12:05:31.188Z,64.67
2023-04-26T12:06:30.083Z,63.47
2023-04-26T12:07:30.072Z,63.57
2023-04-26T12:08:30.090Z,64.71
2023-04-26T12:09:31.098Z,63.98
2023-04-26T12:10:30.100Z,65.59
2023-04-26T12:11:36.981Z,66.46
2023-04-26T12:12:30.023Z,64.36
2023-04-26T12:13:30.977Z,62.47
2023-04-26T12:14:30.004Z,66.18
2023-04-26T12:15:30.026Z,64.85
2023-04-26T12:16:30.553Z,63.46
2023-04-26T12:17:30.124Z,62.99
2023-04-26T12:18:30.044Z,63.65
2023-04-26T12:19:29.969Z,66.08
2023-04-26T12:20:29.964Z,62.09
2023-04-26T12:21:31.055Z,64.28
2023-04-26T12:22:30.951Z,66.20
2023-04-26T12:23:32.530Z,65.90
2023-04-26T12:24:30.587Z,66.15
2023-04-26T12:25:29.976Z,64.89
2023-04-26T12:26:29.927Z,64.53
2023-04-26T12:27:30.493Z,62.48
2023-04-26T12:28:29.931Z,65.03
2023-04-26T12:29:29.944Z,63.98
2023-04-26T12:30:29.883Z,65.25
2023-04-26T12:31:29.920Z,63.54
2023-04-26T12:32:29.872Z,65.00
2023-04-26T12:33:29.874Z,64.91
2023-04-26T12:34:29.860Z,63.94
2023-04-26T12:35:30.488Z,61.81
2023-04-26T12:36:29.842Z,62.76
2023-04-26T12:37:30.899Z,64.02
2023-04-26T12:38:31.448Z,65.83
2023-04-26T12:39:29.820Z,65.04
2023-04-26T12:40:29.820Z,63.58
2023-04-26T12:41:29.808Z,62.71
2023-04-26T12:42:29.835Z,64.27
2023-04-26T12:43:29.783Z,63.67
2023-04-26T12:44:30.798Z,63.31
2023-04-26T12:45:29.795Z,62.50
2023-04-26T12:46:29.776Z,61.57
2023-04-26T12:47:31.694Z,61.26
2023-04-26T12:48:29.873Z,62.66
2023-04-26T12:49:31.563Z,64.07
2023-04-26T12:50:30.523Z,63.66
2023-04-26T12:51:29.730Z,65.41
2023-04-26T12:52:29.736Z,63.40
2023-04-26T12:53:30.725Z,65.35
2023-04-26T12:54:29.737Z,63.02
2023-04-26T12:55:32.482Z,62.58
2023-04-26T12:56:30.701Z,63.70
2023-04-26T12:57:29.746Z,63.42
2023-04-26T12:58:29.667Z,63.90